Site contains unofficial IBTrACS data. Visit the IBTrACS Website to access archived data.

1922 NOT_NAMED (1922085N15112)


IBTrACS version v04r00. Visit IBTrACS website for data access.
Please direct all questions to the IBTrACS Q and A forum

Storm track - Intensity - Wind Radii - Intensity Data - Source Data - All data

Summary Information

Storm ID 1922085N15112
Start Mar 25 22Z
End Mar 30 22Z
ATCF IDs
Track status Best track data.

Storm track plot

Map of storm track

Intensity plots

No Intensity information for this storm


Radial wind information

No radial wind information for this storm


Position and Intensity Table

BASIN ISO_TIME_________ NATURE LAT LON
degrees north degrees east
WP 1922-03-25 22:00:00 NR 14.90 112.20
WP 1922-03-26 00:00:00 NR 15.01 112.26
WP 03:00:00 NR 15.17 112.36
WP 06:00:00 NR 15.32 112.46
WP 09:00:00 NR 15.46 112.56
WP 10:00:00 NR 15.50 112.60
WP 12:00:00 NR 15.58 112.67
WP 15:00:00 NR 15.70 112.79
WP 18:00:00 NR 15.84 112.91
WP 21:00:00 NR 16.03 113.05
WP 22:00:00 NR 16.10 113.10
WP 1922-03-27 00:00:00 NR 16.28 113.20
WP 03:00:00 NR 16.59 113.37
WP 06:00:00 NR 16.94 113.55
WP 09:00:00 NR 17.29 113.74
WP 10:00:00 NR 17.40 113.80
WP 12:00:00 NR 17.60 113.91
WP 15:00:00 NR 17.89 114.07
WP 18:00:00 NR 18.18 114.27
WP 21:00:00 NR 18.49 114.51
WP 22:00:00 NR 18.60 114.60
WP 1922-03-28 00:00:00 NR 18.86 114.81
WP 03:00:00 NR 19.27 115.17
WP 06:00:00 NR 19.66 115.58
WP 09:00:00 NR 20.00 116.04
WP 10:00:00 NR 20.10 116.20
WP 12:00:00 NR 20.26 116.49
WP 15:00:00 NR 20.43 116.96
WP 18:00:00 NR 20.54 117.48
WP 21:00:00 NR 20.59 118.08
WP 22:00:00 NR 20.60 118.30
WP 1922-03-29 00:00:00 NR 20.58 118.79
WP 03:00:00 NR 20.51 119.61
WP 06:00:00 NR 20.43 120.47
WP 09:00:00 NR 20.40 121.32
WP 10:00:00 NR 20.40 121.60
WP 12:00:00 NR 20.44 122.14
WP 15:00:00 NR 20.57 122.93
WP 18:00:00 NR 20.75 123.66
WP 21:00:00 NR 21.00 124.31
WP 22:00:00 NR 21.10 124.50
WP 1922-03-30 00:00:00 NR 21.29 124.85
WP 03:00:00 NR 21.62 125.30
WP 06:00:00 NR 22.01 125.67
WP 09:00:00 NR 22.44 126.00
WP 10:00:00 NR 22.60 126.10
WP 12:00:00 NR 22.92 126.30
WP 15:00:00 NR 23.43 126.61
WP 18:00:00 NR 23.97 126.90
WP 21:00:00 NR 24.52 127.20
WP 22:00:00 NR 24.70 127.30

Source Information

Agency Information
USA
TOKYO
CMA
HKO
NEWDELHI
REUNION
BOM
NADI
WELLINGTON
DS824
TD9636 cons_worldwide_trop_cyclone_18710101-19891231-003:Line=6581
TD9635
NEUMANN
MLC

All available IBTrACS Data

SEASON BASIN SUBBASIN ISO_TIME_________ NATURE LAT LON DIST2LAND LANDFALL IFLAG USA SSHS TD9636 LAT TD9636 LON TD9636 STAGE STORM SPEED STORM DIR
Year degrees north degrees east km km 1 degrees north degrees east kts degrees
1922 WP MM 1922-03-25 22:00:00 NR 14.90 112.20 331 331 __________O___ -1 14.90 112.20 2 4 25
1922 WP MM 1922-03-26 00:00:00 NR 15.01 112.26 345 345 __________P___ -1 15.01 112.26 2 4 31
1922 WP MM 03:00:00 NR 15.17 112.36 359 359 __________P___ -1 15.17 112.36 2 4 31
1922 WP MM 06:00:00 NR 15.32 112.46 371 371 __________P___ -1 15.32 112.46 2 4 34
1922 WP MM 09:00:00 NR 15.46 112.56 386 386 __________P___ -1 15.46 112.56 2 3 35
1922 WP MM 10:00:00 NR 15.50 112.60 386 386 __________O___ -1 15.50 112.60 2 3 40
1922 WP MM 12:00:00 NR 15.58 112.67 399 399 __________P___ -1 15.58 112.67 2 3 41
1922 WP MM 15:00:00 NR 15.70 112.79 412 412 __________P___ -1 15.70 112.79 2 4 41
1922 WP MM 18:00:00 NR 15.84 112.91 419 409 __________P___ -1 15.84 112.91 2 4 38
1922 WP MM 21:00:00 NR 16.03 113.05 416 408 __________P___ -1 16.03 113.05 2 5 36
1922 WP MM 22:00:00 NR 16.10 113.10 408 400 __________O___ -1 16.10 113.10 2 6 31
1922 WP MM 1922-03-27 00:00:00 NR 16.28 113.20 400 385 __________P___ -1 16.28 113.20 2 7 28
1922 WP MM 03:00:00 NR 16.59 113.37 393 382 __________P___ -1 16.59 113.37 2 7 27
1922 WP MM 06:00:00 NR 16.94 113.55 382 377 __________P___ -1 16.94 113.55 2 8 27
1922 WP MM 09:00:00 NR 17.29 113.74 377 377 __________P___ -1 17.29 113.74 2 8 27
1922 WP MM 10:00:00 NR 17.40 113.80 382 377 __________O___ -1 17.40 113.80 2 7 28
1922 WP MM 12:00:00 NR 17.60 113.91 378 372 __________P___ -1 17.60 113.91 2 7 28
1922 WP MM 15:00:00 NR 17.89 114.07 377 372 __________P___ -1 17.89 114.07 2 7 30
1922 WP MM 18:00:00 NR 18.18 114.27 380 376 __________P___ -1 18.18 114.27 2 7 34
1922 WP MM 21:00:00 NR 18.49 114.51 387 387 __________P___ -1 18.49 114.51 2 8 37
1922 WP MM 22:00:00 NR 18.60 114.60 394 383 __________O___ -1 18.60 114.60 2 9 38
1922 WP MM 1922-03-28 00:00:00 NR 18.86 114.81 383 348 __________P___ -1 18.86 114.81 2 10 39
1922 WP MM 03:00:00 NR 19.27 115.17 348 320 __________P___ -1 19.27 115.17 2 11 42
1922 WP MM 06:00:00 NR 19.66 115.58 320 301 __________P___ -1 19.66 115.58 2 11 48
1922 WP MM 09:00:00 NR 20.00 116.04 301 292 __________P___ -1 20.00 116.04 2 11 53
1922 WP MM 10:00:00 NR 20.10 116.20 293 277 __________O___ -1 20.10 116.20 2 10 59
1922 WP MM 12:00:00 NR 20.26 116.49 277 273 __________P___ -1 20.26 116.49 2 9 65
1922 WP MM 15:00:00 NR 20.43 116.96 284 273 __________P___ -1 20.43 116.96 2 10 73
1922 WP MM 18:00:00 NR 20.54 117.48 287 281 __________P___ -1 20.54 117.48 2 11 81
1922 WP MM 21:00:00 NR 20.59 118.08 305 288 __________P___ -1 20.59 118.08 2 12 86
1922 WP MM 22:00:00 NR 20.60 118.30 288 244 __________O___ -1 20.60 118.30 2 13 91
1922 WP MM 1922-03-29 00:00:00 NR 20.58 118.79 244 193 __________P___ -1 20.58 118.79 2 15 94
1922 WP MM 03:00:00 NR 20.51 119.61 193 161 __________P___ -1 20.51 119.61 2 16 95
1922 WP MM 06:00:00 NR 20.43 120.47 169 167 __________P___ -1 20.43 120.47 2 16 94
1922 WP MM 09:00:00 NR 20.40 121.32 172 175 __________P___ -1 20.40 121.32 2 16 92
1922 WP MM 10:00:00 NR 20.40 121.60 182 182 __________O___ -1 20.40 121.60 2 15 86
1922 WP MM 12:00:00 NR 20.44 122.14 208 206 __________P___ -1 20.44 122.14 2 15 82
1922 WP MM 15:00:00 NR 20.57 122.93 253 256 __________P___ -1 20.57 122.93 2 15 78
1922 WP MM 18:00:00 NR 20.75 123.66 305 305 __________P___ -1 20.75 123.66 2 14 71
1922 WP MM 21:00:00 NR 21.00 124.31 358 358 __________P___ -1 21.00 124.31 2 13 66
1922 WP MM 22:00:00 NR 21.10 124.50 379 379 __________O___ -1 21.10 124.50 2 12 61
1922 WP MM 1922-03-30 00:00:00 NR 21.29 124.85 412 412 __________P___ -1 21.29 124.85 2 11 55
1922 WP MM 03:00:00 NR 21.62 125.30 434 430 __________P___ -1 21.62 125.30 2 11 47
1922 WP MM 06:00:00 NR 22.01 125.67 458 455 __________P___ -1 22.01 125.67 2 11 38
1922 WP MM 09:00:00 NR 22.44 126.00 477 473 __________P___ -1 22.44 126.00 2 11 34
1922 WP MM 10:00:00 NR 22.60 126.10 477 472 __________O___ -1 22.60 126.10 2 11 31
1922 WP MM 12:00:00 NR 22.92 126.30 482 477 __________P___ -1 22.92 126.30 2 12 29
1922 WP MM 15:00:00 NR 23.43 126.61 492 490 __________P___ -1 23.43 126.61 2 12 28
1922 WP MM 18:00:00 NR 23.97 126.90 507 507 __________P___ -1 23.97 126.90 2 12 27
1922 WP MM 21:00:00 NR 24.52 127.20 527 526 __________P___ -1 24.52 127.20 2 12 26
1922 WP MM 22:00:00 NR 24.70 127.30 535 __________O___ -1 24.70 127.30 7 12 27